Time;durP1;ratioP1;P1;durP2;ratioP2;P2;SDS_P1;SDS_P2;PMS_P1;PMS_P2;Temp;Humidity;BMP_temperature;BMP_pressure;BME280_temperature;BME280_humidity;BME280_pressure;Samples;Min_cycle;Max_cycle;Signal;HPM_P1;HPM_P2
2022/01/16 00:00:42;;;;;;;11.93;4.25;;;5.20;78.80;;;;;;5049743;28;20040;-66
2022/01/16 00:05:55;;;;;;;14.73;5.60;;;5.10;78.60;;;;;;5064925;28;20405;-66
2022/01/16 00:08:21;;;;;;;15.65;4.88;;;5.00;78.80;;;;;;5050441;28;20033;-66
2022/01/16 00:10:47;;;;;;;15.40;6.28;;;5.00;79.50;;;;;;5068899;28;20029;-66
2022/01/16 00:13:13;;;;;;;13.93;5.75;;;4.90;79.30;;;;;;5052555;28;20032;-65
2022/01/16 00:15:38;;;;;;;20.60;6.90;;;4.90;79.60;;;;;;5050035;28;20056;-66
2022/01/16 00:20:31;;;;;;;17.05;6.63;;;4.80;80.10;;;;;;5047468;28;20384;-66
2022/01/16 00:22:58;;;;;;;16.15;6.53;;;4.70;80.20;;;;;;5053616;28;20032;-66
2022/01/16 00:25:24;;;;;;;17.67;7.00;;;4.70;80.40;;;;;;5055269;28;20051;-67
2022/01/16 00:27:50;;;;;;;18.33;6.95;;;4.60;80.50;;;;;;5055344;28;20043;-66
2022/01/16 00:30:17;;;;;;;17.42;7.15;;;4.60;80.40;;;;;;5048039;28;20549;-67
2022/01/16 00:32:44;;;;;;;21.05;6.85;;;4.50;80.40;;;;;;5055148;28;20032;-67
2022/01/16 00:35:11;;;;;;;16.88;6.68;;;4.50;80.60;;;;;;5047906;28;20117;-67
2022/01/16 00:37:38;;;;;;;22.92;7.22;;;4.40;80.90;;;;;;5068422;28;20028;-66
2022/01/16 00:40:05;;;;;;;19.65;6.22;;;4.30;81.50;;;;;;5058165;28;20051;-64
2022/01/16 00:42:31;;;;;;;21.25;7.32;;;4.30;81.60;;;;;;5070710;28;20572;-65
2022/01/16 00:44:57;;;;;;;16.85;7.35;;;4.20;81.70;;;;;;5055559;28;20112;-66
2022/01/16 00:47:23;;;;;;;20.75;6.93;;;4.20;82.10;;;;;;5062421;28;20602;-66
2022/01/16 00:49:48;;;;;;;15.27;6.45;;;4.20;82.30;;;;;;5048316;28;20025;-66
2022/01/16 00:52:14;;;;;;;12.90;5.85;;;4.30;82.10;;;;;;5054481;28;20480;-66
2022/01/16 00:54:40;;;;;;;18.33;6.78;;;4.40;81.70;;;;;;5059113;28;20017;-65
2022/01/16 00:57:06;;;;;;;13.77;5.65;;;4.40;81.50;;;;;;5050427;28;20025;-67
2022/01/16 00:59:31;;;;;;;19.05;5.82;;;4.40;81.70;;;;;;5047696;28;20063;-67
2022/01/16 01:01:57;;;;;;;18.77;7.38;;;4.40;81.70;;;;;;5053922;28;20017;-67
2022/01/16 01:04:23;;;;;;;14.68;5.65;;;4.40;81.60;;;;;;5047988;28;20487;-67
2022/01/16 01:06:50;;;;;;;16.95;6.45;;;4.40;82.20;;;;;;5052124;28;20028;-66
2022/01/16 01:09:17;;;;;;;14.60;5.82;;;4.40;82.10;;;;;;5055425;28;20039;-63
2022/01/16 01:11:45;;;;;;;15.45;5.72;;;4.40;82.10;;;;;;5052103;28;20794;-67
2022/01/16 01:14:39;;;;;;;13.60;5.45;;;4.30;82.20;;;;;;5056792;28;20024;-68
2022/01/16 01:17:08;;;;;;;12.77;5.57;;;4.30;81.90;;;;;;5053852;28;20524;-67
2022/01/16 01:19:35;;;;;;;16.83;5.30;;;4.30;82.00;;;;;;5049479;28;20131;-67
2022/01/16 01:22:04;;;;;;;18.17;5.90;;;4.20;82.10;;;;;;5051165;28;20032;-67
2022/01/16 01:24:30;;;;;;;8.30;5.00;;;4.20;82.40;;;;;;5053349;28;20041;-66
2022/01/16 01:27:05;;;;;;;16.75;6.38;;;4.10;82.70;;;;;;5050163;28;20037;-65
2022/01/16 01:29:31;;;;;;;15.68;5.63;;;4.00;83.60;;;;;;5069887;28;20086;-65
2022/01/16 01:31:58;;;;;;;9.52;4.93;;;3.90;83.90;;;;;;5053655;28;20020;-66
2022/01/16 01:34:24;;;;;;;14.00;5.22;;;3.80;83.90;;;;;;5052191;28;20029;-65
2022/01/16 01:36:51;;;;;;;16.52;5.28;;;3.70;84.70;;;;;;5050656;28;20028;-65
2022/01/16 01:39:18;;;;;;;16.58;5.18;;;3.70;85.30;;;;;;5051557;28;20032;-65
2022/01/16 01:41:46;;;;;;;13.05;5.22;;;3.70;85.40;;;;;;5050597;28;20071;-66
2022/01/16 01:52:24;;;;;;;16.67;5.78;;;3.50;85.40;;;;;;5070027;28;20032;-64
2022/01/16 01:54:51;;;;;;;10.13;4.78;;;3.50;85.30;;;;;;5053254;28;20601;-66
2022/01/16 01:57:17;;;;;;;11.70;5.13;;;3.50;85.50;;;;;;5046469;28;20033;-66
2022/01/16 01:59:43;;;;;;;22.02;5.88;;;3.40;85.30;;;;;;5059400;28;20746;-66
2022/01/16 02:02:09;;;;;;;21.80;6.10;;;3.40;84.90;;;;;;5053267;28;20036;-66
2022/01/16 02:04:35;;;;;;;15.82;5.85;;;3.40;85.20;;;;;;5054062;28;20035;-66
2022/01/16 02:07:01;;;;;;;14.73;4.72;;;3.40;85.40;;;;;;5056944;28;20082;-66
2022/01/16 02:09:27;;;;;;;12.13;5.00;;;3.30;85.50;;;;;;5062840;28;20047;-66
2022/01/16 02:11:54;;;;;;;18.48;4.53;;;3.30;85.50;;;;;;5047343;28;20179;-66
2022/01/16 02:30:59;;;;;;;10.75;3.88;;;3.10;87.20;;;;;;5048956;28;20080;-66
2022/01/16 02:36:42;;;;;;;14.13;5.25;;;3.00;88.20;;;;;;5045690;28;20072;-66
2022/01/16 02:39:12;;;;;;;11.10;4.53;;;3.10;87.40;;;;;;5056098;28;20036;-67
2022/01/16 02:41:41;;;;;;;9.05;4.15;;;3.00;87.20;;;;;;5047498;28;20134;-66
2022/01/16 02:46:50;;;;;;;23.25;5.57;;;3.00;87.50;;;;;;5052365;28;20396;-66
2022/01/16 02:49:17;;;;;;;13.05;4.53;;;3.00;87.30;;;;;;5052841;28;20047;-67
2022/01/16 02:51:42;;;;;;;20.05;5.05;;;2.90;87.30;;;;;;5048252;28;20136;-67
2022/01/16 02:54:08;;;;;;;15.45;4.45;;;2.90;87.40;;;;;;5051946;28;20116;-67
2022/01/16 02:56:35;;;;;;;12.18;4.68;;;2.90;87.80;;;;;;5045456;28;20111;-67
2022/01/16 02:59:01;;;;;;;12.63;4.22;;;2.90;87.00;;;;;;5048381;28;20059;-67
2022/01/16 03:01:26;;;;;;;21.67;4.75;;;2.80;87.40;;;;;;5052810;28;20041;-66
2022/01/16 03:03:52;;;;;;;11.30;4.32;;;2.80;87.50;;;;;;5053688;28;20037;-67
2022/01/16 03:06:18;;;;;;;15.77;4.13;;;2.80;87.50;;;;;;5052960;28;20036;-66
2022/01/16 03:08:44;;;;;;;13.02;4.05;;;2.80;87.80;;;;;;5046469;28;20064;-66
2022/01/16 03:11:20;;;;;;;10.25;3.58;;;2.80;88.20;;;;;;5044346;28;20044;-67
2022/01/16 03:13:48;;;;;;;13.43;4.90;;;2.70;88.30;;;;;;5062324;28;20040;-66
2022/01/16 03:16:16;;;;;;;16.00;4.82;;;2.80;88.10;;;;;;5049843;28;20108;-67
2022/01/16 03:24:11;;;;;;;16.63;4.20;;;2.70;88.30;;;;;;5047634;28;20095;-67
2022/01/16 03:26:37;;;;;;;14.77;3.80;;;2.80;88.00;;;;;;5055125;28;20546;-67
2022/01/16 03:29:03;;;;;;;12.27;3.78;;;2.70;87.90;;;;;;5051978;28;20028;-67
2022/01/16 03:31:28;;;;;;;19.05;4.30;;;2.70;87.80;;;;;;5073479;28;20040;-67
2022/01/16 03:33:54;;;;;;;15.50;3.90;;;2.70;88.50;;;;;;5053172;28;20021;-68
2022/01/16 03:36:21;;;;;;;14.20;4.22;;;2.60;89.00;;;;;;5049910;28;20043;-67
2022/01/16 03:38:46;;;;;;;13.85;4.30;;;2.60;88.80;;;;;;5055529;28;20029;-67
2022/01/16 03:41:12;;;;;;;18.08;5.70;;;2.60;88.70;;;;;;5058318;28;20054;-67
2022/01/16 03:43:38;;;;;;;15.75;4.57;;;2.60;88.90;;;;;;5055025;28;20063;-67
2022/01/16 03:46:04;;;;;;;9.20;3.90;;;2.60;88.80;;;;;;5051258;28;20182;-68
2022/01/16 03:48:30;;;;;;;17.05;4.78;;;2.70;88.90;;;;;;5051941;28;20069;-67
2022/01/16 03:50:56;;;;;;;15.80;5.03;;;2.70;89.00;;;;;;5045460;28;20043;-67
2022/01/16 03:53:22;;;;;;;18.63;4.93;;;2.70;88.80;;;;;;5053651;28;20523;-67
2022/01/16 03:55:48;;;;;;;17.05;4.65;;;2.60;88.60;;;;;;5060788;28;20055;-67
2022/01/16 03:58:14;;;;;;;17.23;3.88;;;2.60;88.60;;;;;;5051642;28;20202;-67
2022/01/16 04:00:40;;;;;;;17.17;4.60;;;2.60;88.40;;;;;;5052363;28;20045;-68
2022/01/16 04:03:06;;;;;;;18.25;4.15;;;2.60;88.40;;;;;;5050427;28;20048;-67
2022/01/16 04:05:32;;;;;;;16.17;3.53;;;2.60;88.80;;;;;;5048637;28;20067;-68
2022/01/16 04:07:59;;;;;;;14.50;3.90;;;2.60;89.20;;;;;;5050764;28;20100;-68
2022/01/16 04:10:25;;;;;;;7.80;3.88;;;2.60;89.10;;;;;;5058878;28;20102;-67
2022/01/16 04:12:51;;;;;;;9.63;4.15;;;2.60;89.30;;;;;;5052218;28;20034;-67
2022/01/16 04:17:45;;;;;;;13.50;3.38;;;2.50;88.80;;;;;;5051670;28;20034;-66
2022/01/16 04:20:15;;;;;;;10.98;3.78;;;2.40;89.30;;;;;;5049840;28;20056;-67
2022/01/16 04:22:42;;;;;;;13.85;3.95;;;2.40;89.80;;;;;;5052656;28;20036;-67
2022/01/16 04:25:08;;;;;;;8.00;3.60;;;2.50;90.00;;;;;;5056482;28;20115;-68
2022/01/16 04:27:34;;;;;;;18.58;3.75;;;2.50;90.00;;;;;;5049573;28;20405;-66
2022/01/16 04:29:59;;;;;;;11.18;3.67;;;2.40;89.40;;;;;;5049273;28;20225;-68
2022/01/16 04:32:25;;;;;;;19.00;4.78;;;2.50;89.90;;;;;;5054295;28;20029;-67
2022/01/16 04:34:51;;;;;;;14.55;3.80;;;2.50;90.00;;;;;;5048669;28;20823;-67
2022/01/16 04:37:16;;;;;;;10.20;3.45;;;2.50;89.90;;;;;;5057734;28;20113;-67
2022/01/16 04:39:49;;;;;;;13.82;3.60;;;2.50;89.40;;;;;;5054719;28;20056;-66
2022/01/16 04:44:59;;;;;;;18.58;4.65;;;2.50;88.60;;;;;;5071925;28;20142;-66
2022/01/16 04:47:26;;;;;;;16.20;4.07;;;2.50;88.80;;;;;;5053363;28;20567;-66
2022/01/16 04:49:52;;;;;;;18.77;3.72;;;2.50;88.40;;;;;;5054661;28;20049;-67
2022/01/16 04:52:17;;;;;;;15.82;4.28;;;2.40;89.10;;;;;;5061646;28;20122;-67
2022/01/16 04:54:43;;;;;;;18.58;4.05;;;2.50;88.40;;;;;;5069212;28;20614;-66
2022/01/16 04:57:11;;;;;;;14.43;4.35;;;2.40;88.70;;;;;;5051679;28;20043;-66
2022/01/16 04:59:37;;;;;;;12.55;4.40;;;2.40;88.80;;;;;;5051479;28;20028;-67
2022/01/16 05:02:02;;;;;;;16.45;4.57;;;2.40;89.30;;;;;;5050106;28;20056;-68
2022/01/16 05:04:28;;;;;;;21.58;5.40;;;2.40;88.60;;;;;;5052780;28;20041;-66
2022/01/16 05:06:54;;;;;;;14.00;4.45;;;2.40;89.10;;;;;;5043660;28;20230;-68
2022/01/16 05:09:20;;;;;;;11.85;4.43;;;2.30;90.00;;;;;;5051833;28;20116;-67
2022/01/16 05:11:46;;;;;;;22.60;5.47;;;2.40;90.00;;;;;;5049802;28;20116;-67
2022/01/16 05:17:00;;;;;;;24.60;6.00;;;2.40;89.70;;;;;;5043399;28;20500;-67
2022/01/16 05:19:26;;;;;;;18.80;6.13;;;2.40;89.70;;;;;;5055895;28;20037;-67
2022/01/16 05:21:51;;;;;;;18.95;4.93;;;2.30;89.60;;;;;;5052898;28;20035;-67
2022/01/16 05:24:17;;;;;;;15.52;5.75;;;2.30;89.40;;;;;;5055589;28;20033;-67
2022/01/16 05:26:43;;;;;;;13.13;5.50;;;2.30;89.90;;;;;;5052498;28;20031;-67
2022/01/16 05:29:11;;;;;;;17.50;6.10;;;2.30;90.00;;;;;;5049950;28;20135;-68
2022/01/16 05:31:37;;;;;;;13.45;5.55;;;2.30;90.10;;;;;;5054283;28;20504;-67
2022/01/16 05:34:03;;;;;;;15.60;5.38;;;2.20;90.20;;;;;;5056396;28;20035;-67
2022/01/16 05:36:29;;;;;;;20.80;5.13;;;2.20;90.20;;;;;;5050329;28;20029;-68
2022/01/16 05:38:55;;;;;;;14.27;5.15;;;2.20;90.40;;;;;;5051589;28;20040;-67
2022/01/16 05:41:21;;;;;;;16.15;5.47;;;2.10;90.50;;;;;;5047780;28;20050;-68
2022/01/16 05:43:48;;;;;;;18.35;5.18;;;2.10;90.40;;;;;;5047005;28;20029;-68
2022/01/16 05:46:15;;;;;;;12.55;4.80;;;2.10;90.30;;;;;;5053802;28;20431;-68
2022/01/16 05:48:41;;;;;;;15.25;5.50;;;2.10;90.30;;;;;;5053415;28;20083;-67
2022/01/16 05:51:08;;;;;;;12.88;5.07;;;2.10;90.60;;;;;;5048554;28;20951;-67
2022/01/16 05:53:35;;;;;;;14.38;5.90;;;2.10;90.30;;;;;;5053133;28;20037;-67
2022/01/16 05:56:00;;;;;;;14.00;5.45;;;2.10;90.40;;;;;;5046836;28;20029;-68
2022/01/16 05:58:26;;;;;;;13.80;4.97;;;2.10;90.10;;;;;;5050338;28;20090;-67
2022/01/16 06:00:52;;;;;;;15.90;6.35;;;2.00;90.30;;;;;;5055922;28;20032;-68
2022/01/16 06:03:19;;;;;;;16.70;5.32;;;2.00;90.30;;;;;;5053875;28;20353;-67
2022/01/16 06:05:45;;;;;;;14.93;5.57;;;2.00;90.40;;;;;;5052757;28;20125;-67
2022/01/16 06:08:12;;;;;;;14.75;5.55;;;1.90;90.60;;;;;;5050784;28;20488;-67
2022/01/16 06:10:41;;;;;;;11.43;5.25;;;1.90;90.60;;;;;;5049897;28;20125;-68
2022/01/16 06:13:08;;;;;;;15.48;6.28;;;1.90;90.70;;;;;;5053588;28;20044;-67
2022/01/16 06:15:34;;;;;;;18.25;6.68;;;1.90;90.80;;;;;;5065313;28;20028;-67
2022/01/16 06:18:01;;;;;;;15.70;5.72;;;1.90;90.80;;;;;;5052809;28;20041;-67
2022/01/16 06:20:27;;;;;;;19.77;5.38;;;1.90;90.70;;;;;;5066598;28;20029;-67
2022/01/16 06:22:53;;;;;;;21.52;5.85;;;1.90;90.30;;;;;;5047633;28;20396;-68
2022/01/16 06:25:20;;;;;;;15.35;5.25;;;2.00;90.10;;;;;;5050222;28;20086;-67
2022/01/16 06:27:45;;;;;;;14.23;4.93;;;2.00;90.00;;;;;;5050932;28;20123;-67
2022/01/16 06:30:12;;;;;;;8.95;4.22;;;1.90;90.10;;;;;;5062943;28;20035;-67
2022/01/16 06:32:38;;;;;;;18.77;5.47;;;1.90;90.10;;;;;;5049756;28;20063;-67
2022/01/16 06:35:05;;;;;;;15.10;5.95;;;1.80;90.30;;;;;;5042442;28;20805;-68
2022/01/16 06:37:31;;;;;;;15.75;5.40;;;1.80;90.50;;;;;;5048936;28;20098;-68
2022/01/16 06:39:57;;;;;;;12.27;4.53;;;1.90;90.50;;;;;;5048921;28;20029;-68
2022/01/16 06:42:22;;;;;;;12.23;5.65;;;1.80;90.40;;;;;;5056827;28;20103;-68
2022/01/16 06:44:48;;;;;;;12.32;5.10;;;1.80;90.40;;;;;;5053398;28;20070;-67
2022/01/16 06:47:14;;;;;;;19.42;6.55;;;1.80;90.40;;;;;;5051994;28;20036;-68
2022/01/16 06:49:40;;;;;;;13.55;6.68;;;1.70;90.60;;;;;;5053328;28;20051;-68
2022/01/16 06:52:06;;;;;;;22.50;7.45;;;1.70;90.90;;;;;;5048377;28;20131;-68
2022/01/16 06:54:32;;;;;;;17.40;6.88;;;1.70;91.20;;;;;;5049312;28;20036;-68
2022/01/16 06:56:57;;;;;;;16.85;6.35;;;1.70;91.20;;;;;;5071776;28;20838;-68
2022/01/16 06:59:23;;;;;;;16.73;5.90;;;1.70;91.00;;;;;;5053711;28;20089;-68
2022/01/16 07:01:49;;;;;;;15.15;6.60;;;1.70;90.90;;;;;;5058871;28;20032;-68
2022/01/16 07:04:15;;;;;;;14.25;6.35;;;1.70;91.00;;;;;;5065373;28;20041;-67
2022/01/16 07:06:41;;;;;;;19.98;6.78;;;1.70;90.90;;;;;;5051985;28;20059;-67
2022/01/16 07:09:06;;;;;;;15.88;7.10;;;1.70;91.00;;;;;;5047864;28;20047;-68
2022/01/16 07:11:32;;;;;;;17.48;7.18;;;1.70;91.20;;;;;;5057387;28;20488;-67
2022/01/16 07:13:58;;;;;;;16.23;6.82;;;1.80;91.30;;;;;;5050704;28;20059;-67
2022/01/16 07:16:23;;;;;;;21.50;7.80;;;1.80;91.20;;;;;;5056393;28;20068;-67
2022/01/16 07:18:49;;;;;;;19.35;7.30;;;1.80;91.20;;;;;;5059743;28;20031;-67
2022/01/16 07:21:15;;;;;;;20.73;7.40;;;1.80;91.10;;;;;;5073277;28;20094;-68
2022/01/16 07:23:42;;;;;;;29.67;8.95;;;1.80;91.10;;;;;;5044514;28;20038;-68
2022/01/16 07:26:08;;;;;;;18.33;7.80;;;1.80;91.10;;;;;;5054092;28;20040;-67
2022/01/16 07:28:34;;;;;;;21.02;8.10;;;1.80;91.10;;;;;;5049396;28;20041;-68
2022/01/16 07:30:59;;;;;;;23.88;11.60;;;1.80;91.10;;;;;;5047480;28;20025;-68
2022/01/16 07:33:25;;;;;;;42.25;27.17;;;1.80;91.20;;;;;;5051888;28;20128;-67
2022/01/16 07:35:51;;;;;;;41.30;24.90;;;1.90;91.50;;;;;;5053469;28;20028;-67
2022/01/16 07:38:16;;;;;;;38.70;23.80;;;1.90;91.30;;;;;;5061094;28;20803;-67
2022/01/16 07:40:42;;;;;;;23.08;11.07;;;2.00;91.30;;;;;;5051079;28;20550;-68
2022/01/16 07:43:08;;;;;;;21.20;9.23;;;2.00;91.10;;;;;;5049679;28;20151;-68
2022/01/16 07:45:34;;;;;;;18.40;8.23;;;2.10;90.90;;;;;;5062189;28;20037;-68
2022/01/16 07:48:00;;;;;;;16.92;8.45;;;2.10;90.80;;;;;;5053745;28;20060;-69
2022/01/16 07:50:26;;;;;;;21.00;11.05;;;2.20;90.80;;;;;;5041109;28;20063;-67
2022/01/16 07:52:52;;;;;;;18.77;10.25;;;2.20;90.90;;;;;;5061307;28;20694;-67
2022/01/16 07:55:21;;;;;;;21.52;9.98;;;2.20;90.70;;;;;;5049567;28;20036;-68
2022/01/16 07:57:49;;;;;;;25.27;10.63;;;2.20;90.60;;;;;;5048247;28;20086;-68
2022/01/16 08:00:15;;;;;;;20.73;9.40;;;2.30;90.70;;;;;;5061081;28;20693;-68
2022/01/16 08:02:40;;;;;;;24.80;9.10;;;2.30;90.80;;;;;;5051095;28;20051;-68
2022/01/16 08:05:06;;;;;;;24.85;10.23;;;2.30;90.80;;;;;;5049721;28;20036;-68
2022/01/16 08:07:32;;;;;;;31.65;11.07;;;2.40;90.50;;;;;;5047369;28;20037;-68
2022/01/16 08:09:57;;;;;;;25.65;10.95;;;2.30;90.30;;;;;;5053260;28;20024;-67
2022/01/16 08:12:23;;;;;;;25.08;10.30;;;2.40;90.40;;;;;;5070410;28;20095;-68
2022/01/16 08:14:49;;;;;;;22.55;10.82;;;2.40;90.50;;;;;;5055296;28;20047;-68
2022/01/16 08:17:14;;;;;;;26.95;10.02;;;2.40;90.50;;;;;;5066800;28;20047;-68
2022/01/16 08:19:40;;;;;;;18.35;10.10;;;2.50;90.50;;;;;;5057622;28;20036;-68
2022/01/16 08:22:06;;;;;;;23.27;10.73;;;2.50;90.60;;;;;;5054957;28;20028;-68
2022/01/16 08:24:31;;;;;;;26.42;10.73;;;2.60;90.70;;;;;;5054539;28;20037;-68
2022/01/16 08:26:57;;;;;;;24.70;10.52;;;2.60;90.60;;;;;;5052612;28;20031;-68
2022/01/16 08:29:23;;;;;;;20.15;10.75;;;2.80;90.30;;;;;;5054683;28;20033;-67
2022/01/16 08:31:48;;;;;;;25.02;11.30;;;2.90;90.10;;;;;;5054402;28;20087;-68
2022/01/16 08:34:14;;;;;;;23.83;11.38;;;2.90;90.00;;;;;;5054137;28;20036;-68
2022/01/16 08:36:40;;;;;;;24.92;12.30;;;3.00;90.00;;;;;;5051995;28;20036;-68
2022/01/16 08:39:05;;;;;;;27.83;11.70;;;3.00;90.10;;;;;;5053710;28;20773;-68
2022/01/16 08:41:32;;;;;;;19.98;11.07;;;3.10;89.40;;;;;;5058484;28;20039;-66
2022/01/16 08:43:58;;;;;;;26.10;12.00;;;3.20;88.80;;;;;;5050136;28;21046;-68
2022/01/16 08:46:23;;;;;;;20.65;11.40;;;3.30;88.80;;;;;;5055191;28;20037;-69
2022/01/16 08:48:51;;;;;;;29.25;14.10;;;3.30;88.80;;;;;;5060304;28;20111;-68
2022/01/16 08:51:17;;;;;;;23.58;12.20;;;3.40;88.50;;;;;;5054147;28;20039;-69
2022/01/16 08:53:44;;;;;;;28.67;12.70;;;3.50;87.90;;;;;;5054545;28;20036;-68
2022/01/16 08:56:09;;;;;;;25.30;12.40;;;3.50;87.60;;;;;;5053323;28;20090;-67
2022/01/16 08:58:35;;;;;;;35.35;15.45;;;3.40;88.40;;;;;;5050568;28;20036;-70
2022/01/16 09:01:00;;;;;;;29.88;13.85;;;3.50;92.20;;;;;;5054758;28;20107;-69
2022/01/16 09:03:26;;;;;;;24.92;12.23;;;4.20;91.30;;;;;;5052950;28;20037;-69
2022/01/16 09:05:52;;;;;;;16.98;9.90;;;5.10;88.00;;;;;;5056375;28;20120;-69
2022/01/16 09:08:18;;;;;;;20.35;10.32;;;6.10;82.20;;;;;;5056020;28;20104;-67
2022/01/16 09:10:45;;;;;;;22.30;9.77;;;6.80;75.80;;;;;;5051617;28;20045;-67
2022/01/16 09:13:15;;;;;;;18.98;11.05;;;6.90;72.80;;;;;;5054958;28;20127;-67
2022/01/16 09:15:47;;;;;;;18.00;10.95;;;6.70;71.70;;;;;;5050526;28;20090;-67
2022/01/16 09:18:14;;;;;;;24.92;11.75;;;6.30;73.40;;;;;;5049917;28;20048;-67
2022/01/16 09:20:40;;;;;;;19.08;11.25;;;5.90;75.20;;;;;;5048126;28;20034;-67
2022/01/16 09:23:06;;;;;;;22.38;11.43;;;5.60;76.20;;;;;;5049069;28;20853;-68
2022/01/16 09:25:32;;;;;;;20.13;11.10;;;5.30;77.70;;;;;;5044946;28;20033;-68
2022/01/16 09:27:58;;;;;;;23.17;12.35;;;5.20;79.10;;;;;;5045126;28;20032;-67
2022/01/16 09:30:24;;;;;;;24.48;11.95;;;5.10;79.20;;;;;;5054187;28;20032;-68
2022/01/16 09:32:50;;;;;;;21.70;12.43;;;4.90;80.10;;;;;;5055215;28;20500;-67
2022/01/16 09:35:17;;;;;;;22.30;11.88;;;4.90;81.10;;;;;;5052831;28;20032;-67
2022/01/16 09:37:43;;;;;;;22.10;12.73;;;4.90;81.90;;;;;;5049078;28;20051;-68
2022/01/16 09:40:23;;;;;;;27.83;13.73;;;4.90;81.50;;;;;;5046610;28;20028;-69
2022/01/16 09:42:49;;;;;;;38.25;17.25;;;4.90;82.10;;;;;;5052172;28;20480;-67
2022/01/16 09:45:17;;;;;;;35.13;16.25;;;4.90;82.10;;;;;;5055336;28;20032;-66
2022/01/16 09:47:45;;;;;;;63.25;22.00;;;4.90;81.90;;;;;;5050598;28;20048;-66
2022/01/16 09:50:19;;;;;;;33.08;15.65;;;5.00;82.20;;;;;;5048593;28;20025;-65
2022/01/16 09:52:46;;;;;;;25.40;11.52;;;5.00;82.60;;;;;;5068954;28;20443;-66
2022/01/16 09:55:12;;;;;;;20.20;11.20;;;5.10;82.70;;;;;;5048093;28;20028;-65
2022/01/16 09:57:39;;;;;;;20.23;10.88;;;5.10;82.50;;;;;;5056504;28;20075;-65
2022/01/16 10:00:09;;;;;;;22.38;11.20;;;5.00;83.30;;;;;;5052914;28;20025;-68
2022/01/16 10:02:43;;;;;;;19.67;10.32;;;5.00;83.50;;;;;;5052464;28;20052;-62
2022/01/16 10:05:27;;;;;;;21.55;11.13;;;5.00;83.20;;;;;;5053913;28;20568;-66
2022/01/16 10:07:54;;;;;;;19.85;10.60;;;4.90;83.60;;;;;;5051816;28;20040;-65
2022/01/16 10:10:24;;;;;;;23.42;11.85;;;4.90;83.80;;;;;;5060913;28;20075;-65
2022/01/16 10:12:54;;;;;;;19.55;10.50;;;4.80;83.40;;;;;;5049114;28;20037;-66
2022/01/16 10:15:26;;;;;;;22.30;11.52;;;4.80;84.40;;;;;;5048252;28;20041;-66
2022/01/16 10:17:55;;;;;;;26.23;13.25;;;4.70;84.20;;;;;;5047303;28;20720;-66
2022/01/16 10:20:21;;;;;;;25.48;12.38;;;4.70;85.00;;;;;;5051292;28;20051;-66
2022/01/16 10:22:50;;;;;;;23.73;12.07;;;4.60;85.40;;;;;;5053185;28;20040;-66
2022/01/16 10:25:34;;;;;;;23.73;12.48;;;4.60;85.90;;;;;;5050440;28;20731;-66
2022/01/16 10:28:04;;;;;;;25.38;13.23;;;4.60;86.70;;;;;;5051358;28;20385;-66
2022/01/16 10:30:48;;;;;;;24.33;12.77;;;4.60;86.60;;;;;;5048070;28;20029;-66
2022/01/16 10:33:22;;;;;;;28.67;13.00;;;4.70;86.60;;;;;;5061812;28;20099;-66
2022/01/16 10:35:50;;;;;;;26.13;12.00;;;4.70;86.90;;;;;;5051923;28;20040;-66
2022/01/16 10:38:28;;;;;;;21.50;10.82;;;4.70;86.90;;;;;;5052251;28;20033;-65
2022/01/16 10:40:57;;;;;;;22.55;11.63;;;4.80;87.50;;;;;;5054785;28;20064;-66
2022/01/16 10:43:39;;;;;;;22.52;11.18;;;4.70;87.60;;;;;;5053391;28;20731;-67
2022/01/16 10:46:06;;;;;;;21.75;10.55;;;4.80;87.70;;;;;;5060041;28;20036;-65
2022/01/16 10:48:32;;;;;;;20.90;10.93;;;4.80;88.30;;;;;;5044549;28;20037;-64
2022/01/16 10:50:59;;;;;;;20.95;11.73;;;4.80;87.90;;;;;;5050537;28;20123;-65
2022/01/16 10:53:26;;;;;;;30.02;14.25;;;4.90;87.90;;;;;;5053823;28;20731;-64
2022/01/16 10:55:57;;;;;;;29.25;12.93;;;4.90;87.40;;;;;;5053606;28;20025;-65
2022/01/16 10:58:26;;;;;;;24.05;12.75;;;4.90;87.70;;;;;;5049229;28;20673;-69
2022/01/16 11:01:03;;;;;;;27.77;12.80;;;4.90;87.80;;;;;;5050990;28;20025;-65
2022/01/16 11:03:41;;;;;;;25.98;12.40;;;4.90;87.60;;;;;;5058545;28;20029;-68
2022/01/16 11:06:07;;;;;;;22.40;11.70;;;4.90;87.80;;;;;;5047854;28;20072;-68
2022/01/16 11:08:33;;;;;;;21.67;11.27;;;4.90;88.00;;;;;;5047810;28;20144;-67
2022/01/16 11:11:00;;;;;;;18.50;10.43;;;4.90;88.00;;;;;;5053860;28;20120;-66
2022/01/16 11:13:32;;;;;;;22.10;12.48;;;4.90;87.70;;;;;;5050030;28;20036;-67
2022/01/16 11:16:03;;;;;;;26.17;12.85;;;5.00;87.90;;;;;;5048501;28;20032;-66
2022/01/16 11:18:30;;;;;;;24.70;12.80;;;4.90;87.50;;;;;;5050805;28;20032;-66
2022/01/16 11:21:14;;;;;;;20.45;11.50;;;5.00;88.00;;;;;;5054855;28;20059;-67
2022/01/16 11:24:00;;;;;;;20.95;11.30;;;5.00;88.10;;;;;;5052469;28;20037;-68
2022/01/16 11:26:27;;;;;;;20.08;10.90;;;5.00;88.10;;;;;;5051810;28;20715;-67
2022/01/16 11:28:55;;;;;;;21.70;11.57;;;5.00;88.10;;;;;;5050202;28;20434;-68
2022/01/16 11:31:21;;;;;;;21.85;11.60;;;5.00;88.60;;;;;;5045763;28;20492;-67
2022/01/16 11:33:47;;;;;;;20.70;11.05;;;5.00;88.60;;;;;;5049577;28;20027;-68
2022/01/16 11:36:21;;;;;;;22.08;11.57;;;5.10;88.90;;;;;;5051682;28;20161;-69
2022/01/16 11:38:51;;;;;;;23.30;12.48;;;5.20;88.20;;;;;;5047463;28;20089;-69
2022/01/16 11:41:26;;;;;;;23.40;11.88;;;5.20;88.10;;;;;;5052103;28;20036;-68
2022/01/16 11:43:54;;;;;;;18.38;11.10;;;5.30;88.30;;;;;;5051544;28;20032;-69
2022/01/16 11:46:24;;;;;;;20.77;11.40;;;5.40;87.90;;;;;;5050967;28;20044;-69
2022/01/16 11:48:56;;;;;;;31.95;13.77;;;5.40;87.60;;;;;;5049499;28;20111;-69
2022/01/16 11:51:39;;;;;;;26.88;12.52;;;5.50;87.20;;;;;;5054994;28;20068;-68
2022/01/16 11:54:12;;;;;;;24.95;11.30;;;5.50;87.40;;;;;;5051815;28;20036;-68
2022/01/16 11:56:41;;;;;;;20.63;11.45;;;5.50;87.20;;;;;;5056619;28;20028;-69
2022/01/16 11:59:36;;;;;;;20.70;11.15;;;5.60;87.40;;;;;;5048333;28;20507;-68
2022/01/16 12:02:07;;;;;;;19.42;10.63;;;5.60;87.10;;;;;;5050841;28;20037;-68
2022/01/16 12:04:33;;;;;;;17.92;10.50;;;5.60;87.30;;;;;;5060709;28;20029;-69
2022/01/16 12:07:04;;;;;;;18.98;10.63;;;5.60;87.40;;;;;;5053315;28;20068;-68
2022/01/16 12:09:37;;;;;;;23.50;10.00;;;5.60;87.20;;;;;;5053324;28;20120;-69
2022/01/16 12:12:23;;;;;;;19.25;9.95;;;5.60;87.20;;;;;;5073753;28;20080;-68
2022/01/16 12:14:53;;;;;;;21.88;11.38;;;5.60;87.30;;;;;;5052399;28;20039;-68
2022/01/16 12:17:28;;;;;;;19.10;9.77;;;5.60;87.60;;;;;;5047585;28;20036;-69
2022/01/16 12:19:55;;;;;;;21.92;11.65;;;5.60;88.00;;;;;;5052676;28;20028;-68
2022/01/16 12:22:43;;;;;;;19.30;10.75;;;5.70;87.50;;;;;;5050172;28;20108;-67
2022/01/16 12:25:16;;;;;;;24.60;11.15;;;5.70;88.00;;;;;;5058373;28;20024;-67
2022/01/16 12:27:44;;;;;;;26.60;12.98;;;5.70;87.90;;;;;;5057938;28;20142;-67
2022/01/16 12:30:22;;;;;;;19.63;10.82;;;5.80;87.50;;;;;;5050075;28;20051;-69
2022/01/16 12:33:19;;;;;;;23.73;11.18;;;5.80;87.10;;;;;;5050733;28;20423;-67
2022/01/16 12:35:46;;;;;;;24.30;12.20;;;5.70;87.60;;;;;;5055574;28;20774;-70
2022/01/16 12:38:15;;;;;;;22.00;11.38;;;5.70;88.00;;;;;;5067884;28;20923;-67
2022/01/16 12:40:45;;;;;;;21.50;10.23;;;5.70;88.00;;;;;;5047468;28;20519;-69
2022/01/16 12:43:30;;;;;;;22.10;10.82;;;5.70;88.40;;;;;;5052342;28;20044;-69
2022/01/16 12:45:57;;;;;;;20.67;10.20;;;5.70;88.30;;;;;;5053288;28;20036;-70
2022/01/16 12:48:23;;;;;;;23.15;10.88;;;5.70;88.40;;;;;;5059042;28;20066;-68
2022/01/16 12:50:51;;;;;;;20.52;10.48;;;5.80;87.80;;;;;;5049656;28;20017;-67
2022/01/16 12:53:35;;;;;;;19.35;11.02;;;5.80;88.00;;;;;;5054742;28;20043;-67
2022/01/16 12:56:21;;;;;;;26.17;12.90;;;5.80;87.50;;;;;;5052306;28;20500;-68
2022/01/16 12:58:48;;;;;;;23.50;11.50;;;5.80;87.50;;;;;;5048963;28;20025;-68
2022/01/16 13:01:13;;;;;;;24.52;12.07;;;5.80;87.10;;;;;;5063207;28;20366;-69
2022/01/16 13:03:42;;;;;;;21.40;11.10;;;5.70;87.60;;;;;;5059628;28;20448;-69
2022/01/16 13:06:14;;;;;;;20.15;11.20;;;5.80;87.70;;;;;;5049622;28;20104;-68
2022/01/16 13:08:59;;;;;;;22.48;11.57;;;5.80;88.00;;;;;;5049339;28;20742;-69
2022/01/16 13:11:34;;;;;;;22.95;12.10;;;5.90;87.80;;;;;;5058407;28;20090;-69
2022/01/16 13:14:01;;;;;;;23.33;11.98;;;5.80;87.60;;;;;;5057454;28;20037;-68
2022/01/16 13:16:28;;;;;;;23.90;12.60;;;5.80;87.70;;;;;;5052071;28;20792;-67
2022/01/16 13:19:08;;;;;;;26.38;13.82;;;5.90;87.90;;;;;;5057143;28;20021;-67
2022/01/16 13:24:33;;;;;;;30.85;13.73;;;5.90;87.80;;;;;;5052664;28;20539;-67
2022/01/16 13:27:01;;;;;;;25.38;12.90;;;5.90;88.10;;;;;;5056116;28;20033;-66
2022/01/16 13:29:27;;;;;;;22.88;12.55;;;5.90;87.70;;;;;;5050866;28;20032;-68
2022/01/16 13:31:54;;;;;;;49.95;22.00;;;5.90;87.90;;;;;;5049151;28;20035;-67
2022/01/16 13:34:31;;;;;;;30.15;14.45;;;5.90;88.00;;;;;;5058642;28;20041;-66
2022/01/16 13:36:57;;;;;;;28.27;15.77;;;5.90;87.80;;;;;;5055450;28;20087;-68
2022/01/16 13:39:40;;;;;;;25.23;13.85;;;5.90;87.70;;;;;;5051175;28;20037;-68